Pyxis Delta — V7TP8 — position and weather

sailwx.info

Track history (hours):
 
Tides and Currents Weather Stations Pressure Air Temp Water Temp Dewpoint Dewpoint Depression Visibility Wind Speed Wind Dir Waves Ship Positions

Pyxis Delta

Last reported at 2017-Sep-21 22:18 UTC. Time now 2017-Oct-17 16:54 UTC.
Position N 30°14' W 093°15'.
Warning: this ship's position is 25 days out of date.

Length 183 m; draft 8.7 m.

Type: Tanker. MMSI: 538003855.

Date/timePositionNaut miles runAvg speedWind from/ knotsBaromVisibWave heightAir tempDewpointWater temp
2017-Sep-21 22:18N 30°14' W 093°15'0 0.0
2017-Sep-21 22:00N 30°14' W 093°15'2 3.5
2017-Sep-21 21:31N 30°12' W 093°16'3 6.3
2017-Sep-21 21:00N 30°10' W 093°19'3 5.2
2017-Sep-21 20:30N 30°08' W 093°20'4 7.3
2017-Sep-21 20:00N 30°04' W 093°20'4 7.0
2017-Sep-21 19:27N 30°00' W 093°20'4 8.2
2017-Sep-21 19:00N 29°57' W 093°20'4 8.0
2017-Sep-21 18:30N 29°53' W 093°21'5 9.9
2017-Sep-21 18:00N 29°48' W 093°21'610.9
2017-Sep-21 17:28N 29°42' W 093°20'  
2017-Sep-18 12:26N 29°37' W 093°16'0 0.0
2017-Sep-18 10:41N 29°37' W 093°16'0 0.0
2017-Sep-18 10:26N 29°37' W 093°16'0 0.0
2017-Sep-18 09:59N 29°37' W 093°16'0 0.0
2017-Sep-18 01:17N 29°37' W 093°16'0 0.0
2017-Sep-18 00:47N 29°37' W 093°16'0 0.0
2017-Sep-17 08:17N 29°37' W 093°16'0 0.0
2017-Sep-17 07:59N 29°37' W 093°16'0 0.0
2017-Sep-17 04:29N 29°37' W 093°16'0 0.0
2017-Sep-17 03:59N 29°37' W 093°16'0 0.0
2017-Sep-17 03:29N 29°37' W 093°16'0 0.0
2017-Sep-17 02:59N 29°37' W 093°16'0 0.0
2017-Sep-17 02:23N 29°37' W 093°16'0 0.0
2017-Sep-17 01:14N 29°37' W 093°16'0 0.0
2017-Sep-17 00:14N 29°37' W 093°16'0 0.1
2017-Sep-16 23:50N 29°37' W 093°16'0 0.1
2017-Sep-16 23:29N 29°37' W 093°16'0 0.0
2017-Sep-16 04:35N 29°37' W 093°16'0 0.0
2017-Sep-16 02:35N 29°37' W 093°16'0 0.0
2017-Sep-16 02:29N 29°37' W 093°16'0 0.0
2017-Sep-16 01:02N 29°37' W 093°16'0 0.0
2017-Sep-16 00:47N 29°37' W 093°16'5 0.5
2017-Sep-15 14:38N 29°36' W 093°21'212.5
2017-Sep-15 14:30N 29°36' W 093°23'712.9
2017-Sep-15 13:59N 29°34' W 093°31'6610.9
2017-Sep-15 07:54N 29°21' W 094°45'6 9.7
2017-Sep-15 07:15N 29°26' W 094°50'310.4
2017-Sep-15 06:59N 29°28' W 094°51'510.8
2017-Sep-15 06:31N 29°32' W 094°54'611.8
2017-Sep-15 06:01N 29°37' W 094°58'510.5
2017-Sep-15 05:31N 29°42' W 095°00'3 7.0
2017-Sep-15 05:01N 29°44' W 095°04'3 5.1
2017-Sep-15 04:30N 29°44' W 095°07'3 5.8
2017-Sep-15 04:01N 29°45' W 095°10'1 2.5
2017-Sep-15 03:29N 29°45' W 095°11'0 0.0
2017-Sep-15 02:59N 29°45' W 095°11'  
2017-Sep-12 00:44N 29°45' W 095°11'0 0.0
2017-Sep-12 00:30N 29°45' W 095°11'0 0.9
2017-Sep-12 00:00N 29°45' W 095°11'3 6.3
2017-Sep-11 23:30N 29°44' W 095°07'3 6.0
2017-Sep-11 23:00N 29°45' W 095°04'4 7.2
2017-Sep-11 22:30N 29°43' W 095°01'  
Track history (hours):
 
Tides and Currents Weather Stations Pressure Air Temp Water Temp Dewpoint Dewpoint Depression Visibility Wind Speed Wind Dir Waves Ship Positions

Pyxis Delta

Last reported at 2017-Sep-21 22:18 UTC. Time now 2017-Oct-17 16:54 UTC.
Position N 30°14' W 093°15'.
Warning: this ship's position is 25 days out of date.

Length 183 m; draft 8.7 m.

Type: Tanker. MMSI: 538003855.

Date/timePositionNaut miles runAvg speedWind from/ knotsBaromVisibWave heightAir tempDewpointWater temp
2017-Sep-21 22:18N 30°14' W 093°15'0 0.0
2017-Sep-21 22:00N 30°14' W 093°15'2 3.5
2017-Sep-21 21:31N 30°12' W 093°16'3 6.3
2017-Sep-21 21:00N 30°10' W 093°19'3 5.2
2017-Sep-21 20:30N 30°08' W 093°20'4 7.3
2017-Sep-21 20:00N 30°04' W 093°20'4 7.0
2017-Sep-21 19:27N 30°00' W 093°20'4 8.2
2017-Sep-21 19:00N 29°57' W 093°20'4 8.0
2017-Sep-21 18:30N 29°53' W 093°21'5 9.9
2017-Sep-21 18:00N 29°48' W 093°21'610.9
2017-Sep-21 17:28N 29°42' W 093°20'  
2017-Sep-18 12:26N 29°37' W 093°16'0 0.0
2017-Sep-18 10:41N 29°37' W 093°16'0 0.0
2017-Sep-18 10:26N 29°37' W 093°16'0 0.0
2017-Sep-18 09:59N 29°37' W 093°16'0 0.0
2017-Sep-18 01:17N 29°37' W 093°16'0 0.0
2017-Sep-18 00:47N 29°37' W 093°16'0 0.0
2017-Sep-17 08:17N 29°37' W 093°16'0 0.0
2017-Sep-17 07:59N 29°37' W 093°16'0 0.0
2017-Sep-17 04:29N 29°37' W 093°16'0 0.0
2017-Sep-17 03:59N 29°37' W 093°16'0 0.0
2017-Sep-17 03:29N 29°37' W 093°16'0 0.0
2017-Sep-17 02:59N 29°37' W 093°16'0 0.0
2017-Sep-17 02:23N 29°37' W 093°16'0 0.0
2017-Sep-17 01:14N 29°37' W 093°16'0 0.0
2017-Sep-17 00:14N 29°37' W 093°16'0 0.1
2017-Sep-16 23:50N 29°37' W 093°16'0 0.1
2017-Sep-16 23:29N 29°37' W 093°16'0 0.0
2017-Sep-16 04:35N 29°37' W 093°16'0 0.0
2017-Sep-16 02:35N 29°37' W 093°16'0 0.0
2017-Sep-16 02:29N 29°37' W 093°16'0 0.0
2017-Sep-16 01:02N 29°37' W 093°16'0 0.0
2017-Sep-16 00:47N 29°37' W 093°16'5 0.5
2017-Sep-15 14:38N 29°36' W 093°21'212.5
2017-Sep-15 14:30N 29°36' W 093°23'712.9
2017-Sep-15 13:59N 29°34' W 093°31'6610.9
2017-Sep-15 07:54N 29°21' W 094°45'6 9.7
2017-Sep-15 07:15N 29°26' W 094°50'310.4
2017-Sep-15 06:59N 29°28' W 094°51'510.8
2017-Sep-15 06:31N 29°32' W 094°54'611.8
2017-Sep-15 06:01N 29°37' W 094°58'510.5
2017-Sep-15 05:31N 29°42' W 095°00'3 7.0
2017-Sep-15 05:01N 29°44' W 095°04'3 5.1
2017-Sep-15 04:30N 29°44' W 095°07'3 5.8
2017-Sep-15 04:01N 29°45' W 095°10'1 2.5
2017-Sep-15 03:29N 29°45' W 095°11'0 0.0
2017-Sep-15 02:59N 29°45' W 095°11'  
2017-Sep-12 00:44N 29°45' W 095°11'0 0.0
2017-Sep-12 00:30N 29°45' W 095°11'0 0.9
2017-Sep-12 00:00N 29°45' W 095°11'3 6.3
2017-Sep-11 23:30N 29°44' W 095°07'3 6.0
2017-Sep-11 23:00N 29°45' W 095°04'4 7.2
2017-Sep-11 22:30N 29°43' W 095°01'  

Dump ship's entire track history